Pagrindinis puslapis
METAR-TAF:

METAR-TAF

Oro uostai :

Sharurah, Saudo Arabija

platuma: 17-28N, ilguma: 047-07E, Aukštis: 720 m

Dabartinis oras

Ataskaita buvo paskelbta 56 minutes, ne 14:00 UTC
Vėjas 15 kt iš Šiaurės/Šiaurės Rytų
Temperatūra 40°C
Drėgmė 14%
Slėgis 1002 hPa
Matomumas: 7000 m
Giedras dangus

METAR: OESH 171400Z 03015KT 7000 SKC 40/07 Q1002 NOSIG

Laikas: 17:56 (14:56 UTC)

Prognozė

Ataskaita buvo paskelbta 3 valandos ir 56 minutes, ne 11:00 UTC
Prognozė galioja nuo 17 metu 12 UTC su 18 metu 18 UTC
Vėjas 10 kt iš Šiaurės Rytų su gūsio iki 20 kt
Matomumas: 7000 m
Mažai debesys ne aukštis 4000 ft
Laikinai
nuo 17 metu 12 UTC su 17 metu 18 UTC
Matomumas: 3500 m
dulkės, Dulkes pustymas
Tapsmas
nuo 17 metu 21 UTC su 17 metu 23 UTC
Vėjas 8 kt iš Pietų

TAF: OESH 171100Z 1712/1818 04010G20KT 7000 FEW040 TEMPO 1712/1718 3500 DU BLDU BECMG 1721/1723 19008KT

Orai ataskaitas ir orų prognozės (METAR, TAF).

turimą stotys yra geltonos ir raudonos taškus žemėlapyje.

Perkelti pele per norėdami pamatyti stoties vardą.

Tada spustelėkite, norėdami matyti oro stebėjimo ir prognozės.

Norėdami pakeisti žemėlapį: spustelėkite ant žalios mygtukų su juodo kryžiaus žemyn,; žalią mygtuką su brūkšneliu, jei norite nutolinti; arba žalių rodyklių gretimoms žemėlapius.


METAR-TAF: